Startpagina
METAR-TAF:

METAR-TAF

Vliegvelden :

Gilze-Rijen, Nederland

Vliegbasis Gilze-Rijen

breedte: 51-34N, lengte: 004-56E, hoogte: 15 m

Actueel weer

Dit bericht is 23 minuten geleden gemaakt, om 18:25 UTC
Wind 5 kt uit het westen
Temperatuur 19°C
Vochtigheid 64%
Druk 1006 hPa
Zicht 10 km of meer
Geheel bewolkt op 13000 ft

METAR: EHGR 271825Z AUTO 26005KT 9999 OVC130 19/12 Q1006 BLU

Tijdstip: 20:48 (18:48 UTC)

Verwachting

Dit bericht is 10 uur en het 33 minuten geleden gemaakt, om 08:15 UTC
Verwachting geldig van 27 om 09 UTC tot 27 om 21 UTC
Wind 8 kt uit het westzuidwesten
Zicht 10 km of meer
Verspreide wolken op 2000 ft
Gebroken wolken op 18000 ft
Kans 40% :
Tijdelijke
van 27 om 09 UTC tot 27 om 19 UTC
Wind 10 kt uit het westzuidwesten met uitschieters tot 22 kt

TAF: EHGR 270815Z 2709/2721 24008KT 9999 SCT020 BKN180 PROB40 TEMPO 2709/2719 25010G22KT

Waarnemingen en weersverwachtingen van meer dan 4000 vliegvelden (METAR en TAF).

De beschikbare stations zijn de gele en rode punten op de kaart.

Ga met uw muis naar het station om de naam te zien.

Klik dan om waarnemingen en weersverwachtingen te zien.

kaart wijzigen: klik op de groene knoppen met een zwart kruis om in te zoomen, op de groene knop met een streepje om uit te zoomen of op de groene pijlen voor aangrenzende kaarten.


METAR-TAF: